Time;durP1;ratioP1;P1;durP2;ratioP2;P2;SDS_P1;SDS_P2;PMS_P1;PMS_P2;Temp;Humidity;BMP_temperature;BMP_pressure;BME280_temperature;BME280_humidity;BME280_pressure;Samples;Min_cycle;Max_cycle;Signal;HPM_P1;HPM_P2
2022/07/09 00:02:03;;;;;;;1.10;0.70;;;20.60;61.80;;;;;;5000995;28;20540;-53
2022/07/09 00:04:29;;;;;;;1.45;1.00;;;20.60;61.80;;;;;;5001318;28;20033;-51
2022/07/09 00:06:54;;;;;;;2.47;1.10;;;20.60;61.80;;;;;;5001863;28;20036;-53
2022/07/09 00:09:20;;;;;;;0.85;0.85;;;20.50;61.80;;;;;;4984101;28;20033;-53
2022/07/09 00:11:45;;;;;;;1.10;0.98;;;20.60;61.80;;;;;;5001104;28;20616;-51
2022/07/09 00:14:11;;;;;;;1.38;1.00;;;20.60;61.80;;;;;;5000801;28;20054;-51
2022/07/09 00:16:36;;;;;;;1.60;0.90;;;20.50;61.80;;;;;;5004384;28;20068;-53
2022/07/09 00:19:02;;;;;;;2.75;0.95;;;20.50;61.80;;;;;;5019781;28;20403;-55
2022/07/09 00:21:27;;;;;;;1.02;0.98;;;20.50;61.80;;;;;;5002857;28;20033;-54
2022/07/09 00:23:53;;;;;;;1.42;1.00;;;20.50;61.80;;;;;;5020662;28;20021;-52
2022/07/09 00:26:18;;;;;;;1.60;1.00;;;20.50;61.80;;;;;;5020839;28;20021;-52
2022/07/09 00:28:44;;;;;;;1.00;0.90;;;20.50;61.70;;;;;;5020172;28;20183;-54
2022/07/09 00:31:10;;;;;;;2.58;1.38;;;20.50;61.80;;;;;;5020771;28;20440;-54
2022/07/09 00:33:35;;;;;;;1.65;1.00;;;20.50;61.80;;;;;;5003181;28;20058;-54
2022/07/09 00:36:01;;;;;;;2.28;1.00;;;20.50;61.80;;;;;;5001131;28;20034;-55
2022/07/09 00:38:26;;;;;;;2.25;1.17;;;20.50;61.80;;;;;;5000584;28;20049;-52
2022/07/09 00:40:52;;;;;;;1.52;1.35;;;20.50;61.80;;;;;;5000741;28;20030;-50
2022/07/09 00:43:18;;;;;;;1.02;0.98;;;20.50;61.80;;;;;;5001088;28;20042;-53
2022/07/09 00:45:44;;;;;;;1.48;1.10;;;20.50;61.80;;;;;;5000540;28;20042;-53
2022/07/09 00:48:10;;;;;;;1.27;0.95;;;20.50;61.80;;;;;;5000384;28;20114;-52
2022/07/09 00:50:36;;;;;;;0.90;0.82;;;20.50;61.80;;;;;;4999679;28;20122;-55
2022/07/09 00:53:01;;;;;;;0.95;0.90;;;20.50;61.80;;;;;;5000316;28;20112;-53
2022/07/09 00:55:28;;;;;;;0.60;0.60;;;20.50;61.80;;;;;;4967005;28;20093;-51
2022/07/09 00:57:53;;;;;;;0.80;0.77;;;20.50;61.80;;;;;;5008252;28;20038;-53
2022/07/09 01:00:19;;;;;;;1.33;1.00;;;20.50;61.80;;;;;;5002619;28;20044;-53
2022/07/09 01:02:45;;;;;;;1.48;1.38;;;20.50;61.80;;;;;;5014310;28;20049;-52
2022/07/09 01:05:10;;;;;;;0.82;0.80;;;20.50;61.80;;;;;;4983499;28;20429;-54
2022/07/09 01:07:36;;;;;;;1.33;0.88;;;20.50;61.70;;;;;;4987975;28;20080;-53
2022/07/09 01:10:02;;;;;;;2.58;0.95;;;20.50;61.70;;;;;;5020067;28;20030;-52
2022/07/09 01:12:28;;;;;;;1.75;0.80;;;20.50;61.70;;;;;;4984117;28;20053;-53
2022/07/09 01:14:53;;;;;;;2.42;1.30;;;20.50;61.70;;;;;;5001445;28;20409;-55
2022/07/09 01:17:19;;;;;;;1.67;1.00;;;20.50;61.80;;;;;;5000860;28;20061;-53
2022/07/09 01:19:44;;;;;;;1.13;0.98;;;20.50;61.80;;;;;;5000435;28;20406;-52
2022/07/09 01:22:10;;;;;;;1.67;1.10;;;20.50;61.80;;;;;;5000386;28;20461;-53
2022/07/09 01:24:35;;;;;;;1.10;0.82;;;20.50;61.90;;;;;;5019261;28;20411;-59
2022/07/09 01:27:01;;;;;;;1.48;1.08;;;20.50;61.80;;;;;;5019855;28;20103;-56
2022/07/09 01:29:27;;;;;;;1.17;0.90;;;20.50;61.80;;;;;;5001739;28;20029;-56
2022/07/09 01:31:52;;;;;;;2.35;0.90;;;20.50;61.90;;;;;;5019532;28;20817;-53
2022/07/09 01:34:18;;;;;;;1.10;1.00;;;20.50;61.90;;;;;;5002381;28;20044;-60
2022/07/09 01:36:44;;;;;;;1.30;0.85;;;20.50;61.90;;;;;;5019824;28;20029;-57
2022/07/09 01:39:09;;;;;;;1.00;0.82;;;20.50;61.80;;;;;;5018456;28;20018;-58
2022/07/09 01:41:35;;;;;;;2.08;1.00;;;20.50;61.90;;;;;;5019531;28;20033;-56
2022/07/09 01:44:00;;;;;;;1.83;1.35;;;20.50;62.50;;;;;;5019110;28;20029;-54
2022/07/09 01:46:26;;;;;;;1.02;0.93;;;20.50;61.90;;;;;;5019097;28;20021;-57
2022/07/09 01:48:51;;;;;;;0.90;0.90;;;20.50;62.00;;;;;;5020035;28;20691;-59
2022/07/09 01:51:17;;;;;;;1.65;0.80;;;20.50;62.10;;;;;;5001207;28;20032;-57
2022/07/09 01:53:42;;;;;;;0.85;0.70;;;20.50;62.00;;;;;;5018829;28;20045;-57
2022/07/09 01:56:09;;;;;;;0.80;0.80;;;20.50;62.20;;;;;;5019113;28;20029;-53
2022/07/09 01:58:34;;;;;;;1.15;0.90;;;20.40;62.10;;;;;;5000975;28;20099;-58
2022/07/09 02:01:00;;;;;;;1.40;0.75;;;20.40;62.10;;;;;;5018809;28;20033;-54
2022/07/09 02:03:25;;;;;;;0.88;0.88;;;20.50;62.20;;;;;;5001280;28;20018;-52
2022/07/09 02:05:51;;;;;;;1.58;0.77;;;20.40;62.10;;;;;;5019710;28;20116;-59
2022/07/09 02:08:16;;;;;;;0.80;0.80;;;20.50;62.20;;;;;;5017750;28;20029;-55
2022/07/09 02:10:42;;;;;;;1.00;0.82;;;20.40;62.10;;;;;;5003855;28;20458;-58
2022/07/09 02:13:07;;;;;;;0.80;0.77;;;20.40;62.10;;;;;;5003944;28;20665;-56
2022/07/09 02:15:33;;;;;;;1.23;0.65;;;20.40;62.00;;;;;;4986106;28;20045;-54
2022/07/09 02:17:58;;;;;;;1.65;1.08;;;20.40;62.00;;;;;;5003175;28;20183;-57
2022/07/09 02:20:24;;;;;;;1.20;0.80;;;20.40;62.00;;;;;;5003183;28;20054;-52
2022/07/09 02:22:50;;;;;;;1.38;1.00;;;20.50;62.10;;;;;;5004251;28;20515;-59
2022/07/09 02:25:15;;;;;;;1.02;0.80;;;20.40;62.10;;;;;;5003422;28;20084;-58
2022/07/09 02:27:41;;;;;;;0.82;0.70;;;20.40;62.00;;;;;;5003327;28;20778;-57
2022/07/09 02:30:06;;;;;;;1.70;0.85;;;20.40;62.00;;;;;;5002681;28;20022;-58
2022/07/09 02:32:32;;;;;;;1.73;0.95;;;20.40;62.00;;;;;;4986030;28;20092;-59
2022/07/09 02:34:57;;;;;;;1.27;1.00;;;20.40;62.10;;;;;;5003765;28;20030;-58
2022/07/09 02:37:23;;;;;;;1.13;0.90;;;20.40;62.10;;;;;;5003217;28;20531;-53
2022/07/09 02:39:48;;;;;;;0.85;0.80;;;20.40;62.20;;;;;;5012617;28;20037;-55
2022/07/09 02:42:14;;;;;;;0.90;0.60;;;20.40;62.20;;;;;;5022738;28;20033;-57
2022/07/09 02:44:43;;;;;;;1.02;0.60;;;20.40;62.20;;;;;;5004749;28;20092;-54
2022/07/09 02:47:08;;;;;;;0.93;0.82;;;20.40;62.20;;;;;;5022325;28;20053;-57
2022/07/09 02:49:34;;;;;;;1.52;0.70;;;20.40;62.20;;;;;;5022286;28;20081;-58
2022/07/09 02:52:01;;;;;;;2.45;1.25;;;20.40;62.20;;;;;;5022872;28;20032;-57
2022/07/09 02:54:27;;;;;;;1.05;0.90;;;20.40;62.30;;;;;;5022693;28;20778;-54
2022/07/09 02:56:52;;;;;;;1.98;0.82;;;20.40;62.20;;;;;;5023179;28;20124;-55
2022/07/09 02:59:18;;;;;;;1.10;0.70;;;20.40;62.30;;;;;;5021228;28;20029;-58
2022/07/09 03:01:44;;;;;;;1.17;0.80;;;20.40;62.20;;;;;;5022731;28;20692;-58
2022/07/09 03:04:09;;;;;;;1.55;0.90;;;20.40;62.20;;;;;;5004522;28;20032;-59
2022/07/09 03:06:35;;;;;;;1.10;0.68;;;20.40;62.20;;;;;;5022510;28;20811;-54
2022/07/09 03:09:00;;;;;;;0.75;0.70;;;20.40;62.20;;;;;;5021669;28;20029;-55
2022/07/09 03:11:26;;;;;;;1.58;0.80;;;20.40;62.20;;;;;;5022445;28;20030;-58
2022/07/09 03:13:51;;;;;;;1.67;0.50;;;20.40;62.20;;;;;;5004674;28;20018;-56
2022/07/09 03:16:17;;;;;;;0.70;0.70;;;20.40;62.20;;;;;;5005173;28;20058;-55
2022/07/09 03:18:43;;;;;;;1.05;0.80;;;20.40;62.20;;;;;;5000853;28;20679;-59
2022/07/09 03:21:08;;;;;;;0.80;0.70;;;20.40;62.30;;;;;;5002069;28;20048;-58
2022/07/09 03:23:34;;;;;;;1.63;0.90;;;20.40;62.30;;;;;;5002183;28;20026;-57
2022/07/09 03:26:00;;;;;;;1.67;1.00;;;20.40;62.30;;;;;;5001958;28;20496;-57
2022/07/09 03:28:25;;;;;;;0.77;0.77;;;20.40;62.20;;;;;;4999540;28;20041;-57
2022/07/09 03:30:51;;;;;;;1.83;0.80;;;20.40;62.20;;;;;;5001581;28;20083;-59
2022/07/09 03:33:17;;;;;;;2.67;0.88;;;20.40;62.20;;;;;;4999493;28;20045;-58
2022/07/09 03:35:43;;;;;;;1.33;0.98;;;20.40;62.20;;;;;;5010746;28;20092;-58
2022/07/09 03:38:09;;;;;;;1.70;1.20;;;20.40;62.20;;;;;;5020701;28;20041;-56
2022/07/09 03:40:34;;;;;;;1.10;0.98;;;20.40;62.20;;;;;;5020402;28;20030;-56
2022/07/09 03:43:00;;;;;;;0.88;0.60;;;20.40;62.30;;;;;;5020492;28;20048;-58
2022/07/09 03:45:25;;;;;;;1.30;0.65;;;20.40;62.20;;;;;;5020992;28;20044;-60
2022/07/09 03:47:51;;;;;;;3.00;0.80;;;20.40;62.30;;;;;;5021601;28;20258;-53
2022/07/09 03:50:16;;;;;;;3.10;1.00;;;20.30;62.10;;;;;;5002653;28;20083;-56
2022/07/09 03:52:45;;;;;;;0.85;0.70;;;20.40;62.30;;;;;;5021114;28;20543;-60
2022/07/09 03:55:10;;;;;;;1.80;0.80;;;20.30;62.10;;;;;;5021289;28;20065;-57
2022/07/09 03:57:36;;;;;;;2.15;0.80;;;20.40;62.20;;;;;;5020809;28;20061;-52
2022/07/09 04:00:01;;;;;;;2.08;0.85;;;20.40;62.20;;;;;;5020266;28;20026;-53
2022/07/09 04:02:27;;;;;;;1.63;0.80;;;20.40;62.20;;;;;;5021274;28;20117;-57
2022/07/09 04:04:56;;;;;;;1.02;0.80;;;20.40;62.20;;;;;;5003580;28;20491;-58
2022/07/09 04:07:22;;;;;;;1.02;0.80;;;20.40;62.10;;;;;;5021673;28;20091;-56
2022/07/09 04:09:47;;;;;;;3.92;0.80;;;20.40;62.20;;;;;;4999761;28;20505;-57
2022/07/09 04:12:13;;;;;;;3.20;0.90;;;20.40;62.20;;;;;;5002614;28;20038;-58
2022/07/09 04:14:38;;;;;;;2.88;0.90;;;20.40;62.20;;;;;;5004062;28;20026;-58
2022/07/09 04:17:05;;;;;;;1.00;0.82;;;20.40;62.20;;;;;;5002503;28;20627;-55
2022/07/09 04:19:31;;;;;;;1.52;0.93;;;20.40;62.20;;;;;;5001544;28;20038;-60
2022/07/09 04:21:56;;;;;;;1.75;0.77;;;20.40;62.20;;;;;;5002590;28;20076;-54
2022/07/09 04:24:22;;;;;;;1.23;0.77;;;20.40;62.10;;;;;;5001845;28;20054;-57
2022/07/09 04:26:47;;;;;;;2.78;0.90;;;20.40;62.20;;;;;;5001382;28;20037;-57
2022/07/09 04:29:13;;;;;;;2.22;0.70;;;20.40;62.10;;;;;;4982927;28;20520;-52
2022/07/09 04:31:38;;;;;;;1.10;0.90;;;20.40;62.20;;;;;;4982375;28;20057;-55
2022/07/09 04:34:04;;;;;;;1.20;0.70;;;20.40;62.10;;;;;;5000445;28;20100;-52
2022/07/09 04:36:29;;;;;;;1.35;0.70;;;20.40;62.10;;;;;;5000206;28;20026;-52
2022/07/09 04:38:55;;;;;;;2.85;0.70;;;20.40;62.20;;;;;;5000060;28;20042;-55
2022/07/09 04:41:21;;;;;;;2.10;0.60;;;20.40;62.10;;;;;;5000195;28;20053;-55
2022/07/09 04:43:46;;;;;;;3.35;0.88;;;20.40;62.00;;;;;;4999986;28;20440;-55
2022/07/09 04:46:13;;;;;;;1.77;0.93;;;20.50;62.40;;;;;;4982332;28;20034;-53
2022/07/09 04:48:39;;;;;;;2.97;0.85;;;20.50;62.20;;;;;;4999240;28;20033;-50
2022/07/09 04:51:04;;;;;;;2.22;0.98;;;20.50;62.10;;;;;;4999448;28;20515;-51
2022/07/09 04:53:30;;;;;;;2.20;1.08;;;20.40;62.30;;;;;;4991930;22;20034;-54
2022/07/09 04:55:56;;;;;;;2.72;0.90;;;20.40;62.30;;;;;;4999437;28;20036;-54
2022/07/09 04:58:22;;;;;;;2.40;0.70;;;20.40;62.20;;;;;;5019597;28;20491;-52
2022/07/09 05:00:47;;;;;;;1.10;0.80;;;20.40;62.10;;;;;;5018661;28;20514;-54
2022/07/09 05:03:13;;;;;;;2.22;0.98;;;20.50;62.20;;;;;;5019800;28;20037;-53
2022/07/09 05:05:38;;;;;;;1.73;1.20;;;20.40;62.10;;;;;;5019889;28;20092;-51
2022/07/09 05:08:04;;;;;;;0.85;0.60;;;20.50;62.20;;;;;;5019010;28;20057;-52
2022/07/09 05:10:29;;;;;;;1.83;0.80;;;20.50;62.20;;;;;;5016967;28;20486;-53
2022/07/09 05:12:55;;;;;;;2.30;1.02;;;20.40;62.20;;;;;;5019532;28;20032;-56
2022/07/09 05:15:20;;;;;;;2.88;0.98;;;20.50;62.40;;;;;;5019854;28;20025;-54
2022/07/09 05:17:46;;;;;;;1.80;1.05;;;20.50;62.30;;;;;;5019464;28;20545;-51
2022/07/09 05:20:11;;;;;;;1.83;1.00;;;20.50;62.40;;;;;;5018222;28;20033;-54
2022/07/09 05:22:37;;;;;;;1.27;0.95;;;20.50;62.30;;;;;;5030368;28;20044;-52
2022/07/09 05:25:03;;;;;;;2.28;0.90;;;20.60;62.30;;;;;;5021208;28;20029;-53
2022/07/09 05:27:29;;;;;;;2.22;0.80;;;20.60;62.30;;;;;;5039258;28;20043;-53
2022/07/09 05:29:54;;;;;;;0.98;0.77;;;20.60;62.10;;;;;;5038916;28;20033;-54
2022/07/09 05:32:20;;;;;;;1.17;1.00;;;20.60;62.20;;;;;;5039748;28;20021;-55
2022/07/09 05:34:46;;;;;;;1.70;0.90;;;20.60;62.30;;;;;;5021926;28;20521;-53
2022/07/09 05:37:11;;;;;;;1.75;0.70;;;20.60;62.20;;;;;;5021128;28;20574;-56
2022/07/09 05:39:37;;;;;;;2.17;1.00;;;20.60;62.30;;;;;;5038604;28;20774;-53
2022/07/09 05:42:02;;;;;;;0.95;0.70;;;20.60;62.20;;;;;;5038128;28;20043;-54
2022/07/09 05:44:28;;;;;;;2.90;0.90;;;20.50;62.10;;;;;;5021719;28;20033;-57
2022/07/09 05:46:53;;;;;;;1.10;0.98;;;20.60;62.20;;;;;;5039277;28;20033;-53
2022/07/09 05:49:19;;;;;;;1.55;0.93;;;20.60;62.20;;;;;;5038399;28;21298;-54
2022/07/09 05:51:45;;;;;;;2.88;1.00;;;20.50;62.00;;;;;;5038838;28;20024;-54
2022/07/09 05:54:10;;;;;;;1.42;0.80;;;20.50;62.00;;;;;;5018991;28;20076;-55
2022/07/09 05:56:36;;;;;;;0.80;0.70;;;20.50;62.00;;;;;;5018551;28;20270;-51
2022/07/09 05:59:05;;;;;;;2.40;1.00;;;20.50;62.00;;;;;;5017847;28;20056;-55
2022/07/09 06:01:30;;;;;;;1.25;0.80;;;20.50;61.90;;;;;;5018761;28;20033;-54
2022/07/09 06:03:56;;;;;;;2.95;0.80;;;20.50;61.80;;;;;;5018886;28;20037;-51
2022/07/09 06:06:22;;;;;;;1.67;1.10;;;20.50;61.80;;;;;;5019003;28;20128;-56
2022/07/09 06:08:47;;;;;;;2.38;1.20;;;20.50;61.80;;;;;;5000442;28;20060;-54
2022/07/09 06:11:13;;;;;;;2.53;0.80;;;20.50;61.80;;;;;;5019274;28;20026;-54
2022/07/09 06:13:38;;;;;;;0.70;0.60;;;20.50;61.80;;;;;;5020010;28;20025;-52
2022/07/09 06:16:04;;;;;;;1.08;0.80;;;20.50;61.80;;;;;;5019393;28;20582;-52
2022/07/09 06:18:30;;;;;;;2.00;0.80;;;20.50;61.80;;;;;;5018709;28;20049;-54
2022/07/09 06:20:55;;;;;;;1.38;1.00;;;20.50;61.80;;;;;;5019528;28;20034;-53
2022/07/09 06:23:21;;;;;;;2.20;0.70;;;20.50;61.70;;;;;;5019777;28;20068;-52
2022/07/09 06:25:47;;;;;;;1.85;0.77;;;20.50;61.80;;;;;;5018750;28;20029;-53
2022/07/09 06:28:12;;;;;;;1.35;0.73;;;20.50;61.80;;;;;;5019223;28;20026;-50
2022/07/09 06:30:38;;;;;;;3.38;1.00;;;20.50;61.80;;;;;;5019059;28;20216;-55
2022/07/09 06:33:03;;;;;;;5.07;1.00;;;20.50;61.90;;;;;;5019650;28;20057;-54
2022/07/09 06:35:29;;;;;;;3.13;1.15;;;20.50;62.10;;;;;;5019952;28;20025;-51
2022/07/09 06:37:54;;;;;;;5.25;1.33;;;20.50;62.10;;;;;;5019295;28;20385;-51
2022/07/09 06:40:20;;;;;;;6.38;1.35;;;20.50;62.30;;;;;;5018698;28;20076;-52
2022/07/09 06:42:45;;;;;;;4.40;1.40;;;20.50;62.40;;;;;;5018368;28;20078;-53
2022/07/09 06:45:11;;;;;;;5.47;1.25;;;20.50;62.40;;;;;;5018065;28;20029;-52
2022/07/09 06:47:36;;;;;;;8.18;1.33;;;20.50;62.50;;;;;;5016242;28;20040;-52
2022/07/09 06:50:02;;;;;;;3.30;1.40;;;20.50;62.40;;;;;;5017548;28;20037;-53
2022/07/09 06:52:28;;;;;;;5.03;1.83;;;20.50;62.60;;;;;;5019048;28;20057;-52
2022/07/09 06:54:53;;;;;;;7.78;1.63;;;20.50;62.70;;;;;;5020856;28;20460;-52
2022/07/09 06:57:19;;;;;;;4.50;1.42;;;20.50;63.10;;;;;;5022843;28;20034;-54
2022/07/09 06:59:48;;;;;;;6.90;2.08;;;20.60;63.40;;;;;;5022405;28;20064;-53
2022/07/09 07:02:16;;;;;;;6.28;2.05;;;20.50;63.30;;;;;;5005950;28;20033;-54
2022/07/09 07:04:41;;;;;;;9.95;1.85;;;20.60;63.40;;;;;;5022759;28;20451;-55
2022/07/09 07:07:07;;;;;;;6.25;2.20;;;20.50;63.30;;;;;;5023319;28;20029;-55
2022/07/09 07:09:32;;;;;;;7.45;2.70;;;20.50;63.40;;;;;;5022418;28;20071;-52
2022/07/09 07:11:58;;;;;;;7.97;2.03;;;20.50;63.30;;;;;;5022913;28;20026;-52
2022/07/09 07:14:24;;;;;;;10.93;1.63;;;20.50;63.30;;;;;;5023169;28;20580;-53
2022/07/09 07:16:50;;;;;;;6.18;1.40;;;20.50;63.30;;;;;;5022702;28;20396;-52
2022/07/09 07:19:16;;;;;;;6.20;2.38;;;20.50;63.30;;;;;;5021847;28;20033;-52
2022/07/09 07:21:42;;;;;;;7.43;1.50;;;20.50;63.30;;;;;;5022609;28;20037;-55
2022/07/09 07:24:07;;;;;;;4.03;1.30;;;20.50;63.30;;;;;;5022332;28;20040;-55
2022/07/09 07:26:36;;;;;;;6.05;1.60;;;20.50;63.30;;;;;;5022370;28;20033;-55
2022/07/09 07:29:02;;;;;;;4.57;1.42;;;20.50;63.30;;;;;;5021283;28;20033;-52
2022/07/09 07:31:28;;;;;;;7.32;1.73;;;20.50;63.30;;;;;;5022927;28;20087;-52
2022/07/09 07:33:53;;;;;;;4.97;1.20;;;20.50;63.30;;;;;;5024124;28;20033;-50
2022/07/09 07:36:19;;;;;;;1.98;1.17;;;20.50;64.00;;;;;;5022120;28;20033;-51
2022/07/09 07:38:47;;;;;;;2.08;1.63;;;20.50;63.40;;;;;;5021801;28;20072;-52
2022/07/09 07:41:12;;;;;;;8.20;1.80;;;20.50;64.10;;;;;;5021714;28;20037;-52
2022/07/09 07:43:38;;;;;;;6.57;1.70;;;20.50;64.20;;;;;;5022271;28;20194;-52
2022/07/09 07:46:04;;;;;;;3.08;1.80;;;20.50;64.20;;;;;;5021993;28;20036;-54
2022/07/09 07:48:30;;;;;;;6.10;2.05;;;20.50;64.20;;;;;;5021218;28;20026;-52
2022/07/09 07:50:56;;;;;;;2.67;2.00;;;20.50;63.80;;;;;;5021141;28;20033;-52
2022/07/09 07:53:22;;;;;;;7.95;2.10;;;20.50;64.10;;;;;;5002393;28;20034;-54
2022/07/09 07:55:47;;;;;;;8.82;1.90;;;20.50;64.30;;;;;;5019758;28;20048;-52
2022/07/09 07:58:13;;;;;;;5.15;2.15;;;20.50;64.80;;;;;;5002724;28;20049;-53
2022/07/09 08:00:38;;;;;;;4.38;2.03;;;20.40;64.90;;;;;;5020926;28;20029;-52
2022/07/09 08:03:04;;;;;;;6.43;2.67;;;20.40;64.80;;;;;;5019857;28;20052;-54
2022/07/09 08:05:30;;;;;;;7.43;2.22;;;20.50;64.70;;;;;;5020038;28;20113;-52
2022/07/09 08:07:55;;;;;;;7.90;2.75;;;20.40;64.60;;;;;;5020434;28;20120;-52
2022/07/09 08:10:21;;;;;;;12.02;2.70;;;20.50;64.60;;;;;;5021339;28;20039;-56
2022/07/09 08:12:46;;;;;;;6.65;2.25;;;20.40;64.60;;;;;;5003951;28;20033;-56
2022/07/09 08:15:12;;;;;;;6.22;2.75;;;20.50;64.90;;;;;;5021317;28;20021;-55
2022/07/09 08:17:37;;;;;;;8.10;2.75;;;20.40;64.90;;;;;;5021004;28;20080;-53
2022/07/09 08:20:04;;;;;;;13.93;2.60;;;20.40;64.70;;;;;;5020898;28;20034;-50
2022/07/09 08:22:30;;;;;;;9.63;3.22;;;20.50;64.90;;;;;;5021603;28;20028;-52
2022/07/09 08:24:55;;;;;;;9.10;2.83;;;20.50;65.10;;;;;;5022168;28;20017;-50
2022/07/09 08:27:21;;;;;;;13.80;3.85;;;20.50;65.00;;;;;;5021529;28;20052;-54
2022/07/09 08:29:48;;;;;;;16.58;3.55;;;20.50;65.20;;;;;;5020105;28;20128;-55
2022/07/09 08:32:14;;;;;;;18.45;3.35;;;20.50;64.70;;;;;;5021121;28;20429;-52
2022/07/09 08:34:39;;;;;;;18.50;3.53;;;20.50;65.40;;;;;;5021232;28;20042;-55
2022/07/09 08:37:05;;;;;;;13.57;4.78;;;20.50;65.10;;;;;;5020721;28;20417;-53
2022/07/09 08:39:30;;;;;;;7.55;2.83;;;20.50;65.20;;;;;;5020467;28;20104;-51
2022/07/09 08:41:56;;;;;;;18.88;4.38;;;20.40;65.30;;;;;;5020728;28;20041;-52
2022/07/09 08:44:23;;;;;;;12.73;3.15;;;20.30;65.40;;;;;;5003696;28;20067;-54
2022/07/09 08:46:48;;;;;;;13.30;3.33;;;20.40;65.40;;;;;;5003539;28;20468;-51
2022/07/09 08:49:14;;;;;;;15.15;3.03;;;20.30;65.50;;;;;;5002644;28;20105;-52
2022/07/09 08:51:40;;;;;;;14.38;3.42;;;20.40;65.30;;;;;;5003708;28;20036;-53
2022/07/09 08:54:06;;;;;;;10.93;2.95;;;20.30;65.50;;;;;;5002949;28;20423;-52
2022/07/09 08:56:32;;;;;;;14.68;3.90;;;20.30;65.70;;;;;;5003182;28;20025;-53
2022/07/09 08:58:57;;;;;;;12.55;3.58;;;20.30;65.40;;;;;;5001893;28;20041;-54
2022/07/09 09:01:23;;;;;;;9.60;3.03;;;20.30;65.90;;;;;;5015806;28;20109;-51
2022/07/09 09:03:48;;;;;;;4.95;2.30;;;20.20;65.90;;;;;;5002262;28;20075;-52
2022/07/09 09:06:14;;;;;;;8.20;1.83;;;20.30;65.90;;;;;;5019991;28;20580;-53
2022/07/09 09:08:43;;;;;;;5.00;2.15;;;20.30;65.50;;;;;;5020155;28;20034;-52
2022/07/09 09:11:16;;;;;;;5.90;1.80;;;20.10;65.70;;;;;;5002748;28;20834;-54
2022/07/09 09:13:43;;;;;;;6.10;2.35;;;20.20;66.00;;;;;;5020561;28;20034;-53
2022/07/09 09:16:09;;;;;;;4.88;1.80;;;20.30;65.60;;;;;;5020013;28;20131;-53
2022/07/09 09:18:48;;;;;;;3.17;1.60;;;20.30;65.70;;;;;;5019331;28;20218;-53
2022/07/09 09:21:14;;;;;;;2.47;1.70;;;20.40;65.70;;;;;;5020283;28;20033;-51
2022/07/09 09:23:43;;;;;;;2.88;1.77;;;20.40;65.30;;;;;;5021030;28;20041;-53
2022/07/09 09:26:09;;;;;;;3.15;1.70;;;20.50;65.60;;;;;;5020715;28;20036;-52
2022/07/09 09:28:44;;;;;;;2.20;1.65;;;20.40;64.80;;;;;;5020086;28;20025;-54
2022/07/09 09:31:27;;;;;;;2.23;1.20;;;20.40;65.60;;;;;;5002341;28;20036;-52
2022/07/09 09:33:54;;;;;;;2.95;1.55;;;20.40;65.30;;;;;;5004512;28;20244;-55
2022/07/09 09:36:33;;;;;;;4.38;2.38;;;20.40;65.20;;;;;;5002051;28;20159;-52
2022/07/09 09:39:21;;;;;;;3.20;1.48;;;20.30;64.90;;;;;;5009663;28;20057;-51
2022/07/09 09:41:48;;;;;;;1.38;1.27;;;20.40;65.40;;;;;;5019274;28;20028;-53
2022/07/09 09:44:19;;;;;;;3.38;1.50;;;20.40;65.20;;;;;;5020130;28;20040;-52
2022/07/09 09:46:45;;;;;;;1.65;1.33;;;20.40;65.00;;;;;;5019794;28;20040;-55
2022/07/09 09:49:14;;;;;;;2.03;1.60;;;20.40;65.10;;;;;;5019373;28;20029;-52
2022/07/09 09:51:49;;;;;;;5.00;1.50;;;20.40;65.00;;;;;;5019377;28;20025;-52
2022/07/09 09:54:16;;;;;;;3.25;1.55;;;20.40;65.10;;;;;;5020202;28;20041;-52
2022/07/09 09:56:41;;;;;;;2.88;1.50;;;20.40;65.10;;;;;;5002859;28;20040;-53
2022/07/09 09:59:06;;;;;;;4.80;1.80;;;20.40;65.00;;;;;;5019680;28;20112;-57
2022/07/09 10:01:32;;;;;;;1.98;1.10;;;20.40;64.90;;;;;;5002296;28;20059;-55
2022/07/09 10:03:58;;;;;;;2.55;1.25;;;20.40;65.10;;;;;;5002571;28;20021;-50
2022/07/09 10:06:24;;;;;;;2.50;1.33;;;20.40;65.10;;;;;;5020044;28;20051;-53
2022/07/09 10:08:50;;;;;;;5.35;1.92;;;20.50;65.10;;;;;;5001964;28;20029;-55
2022/07/09 10:11:15;;;;;;;5.90;2.17;;;20.50;65.50;;;;;;5002447;28;20404;-58
2022/07/09 10:13:51;;;;;;;6.68;3.63;;;20.40;66.00;;;;;;5003097;28;20393;-59
2022/07/09 10:16:17;;;;;;;6.78;2.15;;;20.00;68.20;;;;;;5001728;28;20057;-61
2022/07/09 10:18:52;;;;;;;7.70;2.40;;;20.10;69.10;;;;;;5019367;28;20057;-59
2022/07/09 10:21:17;;;;;;;7.05;2.38;;;20.20;68.60;;;;;;5019592;28;20029;-58
2022/07/09 10:23:50;;;;;;;8.70;3.05;;;20.40;68.40;;;;;;5040553;28;20024;-57
2022/07/09 10:26:16;;;;;;;13.52;2.97;;;20.30;68.40;;;;;;5022356;28;20503;-60
2022/07/09 10:28:41;;;;;;;17.17;3.22;;;20.50;68.00;;;;;;5021113;28;20041;-58
2022/07/09 10:31:07;;;;;;;13.00;3.13;;;20.50;67.70;;;;;;5042168;28;20032;-56
2022/07/09 10:33:34;;;;;;;16.08;3.28;;;20.60;67.70;;;;;;5043251;28;20033;-55
2022/07/09 10:36:09;;;;;;;15.75;3.15;;;20.60;67.30;;;;;;5043745;28;20108;-53
2022/07/09 10:38:35;;;;;;;;;;;20.70;67.40;;;;;;5042236;28;20033;-55
2022/07/09 10:41:02;;;;;;;19.75;3.95;;;20.70;67.20;;;;;;5043430;28;19913;-55
2022/07/09 10:43:48;;;;;;;14.70;4.05;;;20.70;67.00;;;;;;5043710;28;20028;-59
2022/07/09 10:46:14;;;;;;;15.00;3.97;;;20.70;66.80;;;;;;5042841;28;20392;-57
2022/07/09 10:48:40;;;;;;;17.90;3.78;;;20.70;66.80;;;;;;5041610;28;20535;-58
2022/07/09 10:51:06;;;;;;;14.80;3.58;;;20.70;66.80;;;;;;5036679;28;20519;-53
2022/07/09 10:53:31;;;;;;;21.48;3.63;;;20.70;66.70;;;;;;5023380;28;20099;-59
2022/07/09 10:55:56;;;;;;;12.55;3.70;;;20.70;66.70;;;;;;5025849;28;20548;-53
2022/07/09 10:58:24;;;;;;;11.35;3.20;;;20.80;66.70;;;;;;5019459;22;20068;-67
2022/07/09 11:00:56;;;;;;;13.95;3.80;;;20.80;66.50;;;;;;4972224;28;20034;-66
2022/07/09 11:03:26;;;;;;;8.15;3.03;;;20.80;66.80;;;;;;4973298;28;20030;-69
2022/07/09 11:05:51;;;;;;;14.50;3.55;;;20.80;67.00;;;;;;5007440;28;20026;-66
2022/07/09 11:08:17;;;;;;;14.60;3.20;;;20.80;66.90;;;;;;5028109;28;20600;-66
2022/07/09 11:10:42;;;;;;;4.95;2.97;;;20.60;66.70;;;;;;5045647;28;20021;-66
2022/07/09 11:13:09;;;;;;;6.18;3.03;;;20.60;67.20;;;;;;5037541;28;20065;-66
2022/07/09 11:15:34;;;;;;;5.20;3.17;;;20.60;67.70;;;;;;5027155;28;20029;-67
2022/07/09 11:18:02;;;;;;;3.88;2.65;;;20.60;68.00;;;;;;5026884;28;20040;-67
2022/07/09 11:20:28;;;;;;;7.63;2.70;;;20.50;68.10;;;;;;5026479;28;20040;-67
2022/07/09 11:22:56;;;;;;;9.90;3.05;;;20.50;68.10;;;;;;5026185;28;20072;-67
2022/07/09 11:25:22;;;;;;;3.92;2.20;;;20.60;68.40;;;;;;5026627;28;20029;-68
2022/07/09 11:27:47;;;;;;;3.88;2.58;;;20.60;68.30;;;;;;5029414;28;20021;-67
2022/07/09 11:30:14;;;;;;;3.80;1.90;;;20.60;67.90;;;;;;5046103;28;20750;-68
2022/07/09 11:32:40;;;;;;;3.80;2.50;;;20.70;68.00;;;;;;5027468;28;20033;-68
2022/07/09 11:35:06;;;;;;;3.95;2.20;;;20.60;67.90;;;;;;5009574;28;20033;-67
2022/07/09 11:37:32;;;;;;;6.03;1.88;;;20.60;67.60;;;;;;5026537;28;20037;-66
2022/07/09 11:39:57;;;;;;;5.55;2.03;;;20.60;67.30;;;;;;5026265;28;20029;-69
2022/07/09 11:42:23;;;;;;;70.93;44.05;;;20.60;68.10;;;;;;5009593;28;20083;-69
2022/07/09 11:44:56;;;;;;;134.90;86.13;;;20.60;67.60;;;;;;5009240;28;20465;-67
2022/07/09 11:47:32;;;;;;;101.32;64.28;;;20.60;67.40;;;;;;5027111;28;20105;-66
2022/07/09 11:50:10;;;;;;;;;;;20.40;69.70;;;;;;5027582;28;20090;-67
2022/07/09 11:52:36;;;;;;;120.60;76.53;;;20.40;68.80;;;;;;5045611;28;19909;-67
2022/07/09 11:55:06;;;;;;;119.50;80.05;;;20.50;68.60;;;;;;5010535;28;20045;-66
2022/07/09 11:57:32;;;;;;;101.05;66.35;;;20.60;68.50;;;;;;4999325;28;20469;-67
2022/07/09 11:59:58;;;;;;;97.32;62.42;;;20.60;69.30;;;;;;5024968;28;20021;-67
2022/07/09 12:02:25;;;;;;;71.20;46.53;;;20.50;67.90;;;;;;5045817;28;20632;-66
2022/07/09 12:04:50;;;;;;;65.63;42.45;;;20.50;69.10;;;;;;5030100;28;20022;-66
2022/07/09 12:07:16;;;;;;;55.83;35.88;;;20.50;67.10;;;;;;5007675;28;20037;-67
2022/07/09 12:09:41;;;;;;;50.20;31.92;;;20.50;66.90;;;;;;5038554;28;20021;-65
2022/07/09 12:12:07;;;;;;;43.95;28.95;;;20.50;67.00;;;;;;5041549;28;20025;-65
2022/07/09 12:14:32;;;;;;;43.15;26.15;;;20.50;67.10;;;;;;5023826;28;20029;-66
2022/07/09 12:16:58;;;;;;;43.53;26.92;;;20.40;68.80;;;;;;5025625;28;20056;-66
2022/07/09 12:19:23;;;;;;;36.90;21.05;;;20.40;68.10;;;;;;5024974;28;20305;-67
2022/07/09 12:21:49;;;;;;;48.50;29.73;;;20.50;69.30;;;;;;5015062;28;20194;-65
2022/07/09 12:24:14;;;;;;;45.38;28.48;;;20.50;68.10;;;;;;5014285;28;20033;-68
2022/07/09 12:26:40;;;;;;;43.22;25.95;;;20.50;68.30;;;;;;5044910;28;20036;-68
2022/07/09 12:29:05;;;;;;;40.08;23.95;;;20.50;67.90;;;;;;5038314;28;20033;-68
2022/07/09 12:31:32;;;;;;;33.95;20.67;;;20.60;67.70;;;;;;5025512;28;20044;-67
2022/07/09 12:33:57;;;;;;;31.20;18.95;;;20.50;67.70;;;;;;5023665;28;20032;-67
2022/07/09 12:36:23;;;;;;;29.88;17.05;;;20.60;67.50;;;;;;5024596;28;20629;-67
2022/07/09 12:38:48;;;;;;;25.85;15.27;;;20.60;67.50;;;;;;5026464;28;20029;-67
2022/07/09 12:41:14;;;;;;;21.35;13.50;;;20.60;67.10;;;;;;5034361;28;20029;-66